Time;durP1;ratioP1;P1;durP2;ratioP2;P2;SDS_P1;SDS_P2;PMS_P1;PMS_P2;Temp;Humidity;BMP_temperature;BMP_pressure;BME280_temperature;BME280_humidity;BME280_pressure;Samples;Min_cycle;Max_cycle;Signal;HPM_P1;HPM_P2
2022/02/27 00:02:15;;;;;;;8.95;2.67;;;4.10;99.90;;;;;;5028423;28;20026;-80
2022/02/27 00:05:41;;;;;;;10.23;2.38;;;2.80;99.90;;;;;;5016368;28;20429;-80
2022/02/27 00:09:07;;;;;;;7.20;2.20;;;2.90;99.90;;;;;;4989041;28;20063;-81
2022/02/27 00:19:31;;;;;;;5.32;1.92;;;1.40;99.90;;;;;;4843019;29;20072;-80
2022/02/27 00:22:26;;;;;;;4.47;1.65;;;2.30;99.90;;;;;;4910598;29;20515;-79
2022/02/27 00:29:11;;;;;;;7.22;2.20;;;2.90;99.90;;;;;;4948517;29;20054;-79
2022/02/27 00:31:40;;;;;;;8.07;2.10;;;;;;;;;;4945584;29;20046;-81
2022/02/27 00:35:00;;;;;;;8.68;2.30;;;2.70;99.90;;;;;;4931664;29;20028;-83
2022/02/27 00:37:58;;;;;;;10.65;2.20;;;1.80;99.90;;;;;;4932853;29;20034;-82
2022/02/27 00:41:16;;;;;;;10.77;2.10;;;2.60;99.90;;;;;;4948660;29;20039;-81
2022/02/27 00:44:50;;;;;;;5.85;1.98;;;3.00;99.90;;;;;;4961456;29;20486;-81
2022/02/27 00:50:48;;;;;;;7.43;2.50;;;;;;;;;;5007225;28;20104;-80
2022/02/27 00:54:17;;;;;;;6.10;2.28;;;2.70;99.90;;;;;;5010866;28;20084;-79
2022/02/27 00:57:26;;;;;;;6.35;1.88;;;1.10;99.90;;;;;;5028157;28;20065;-80
2022/02/27 01:01:00;;;;;;;6.45;2.55;;;2.60;99.90;;;;;;4987581;28;20035;-80
2022/02/27 01:04:14;;;;;;;7.22;1.90;;;3.10;99.90;;;;;;5012382;28;20018;-81
2022/02/27 01:07:26;;;;;;;7.85;2.33;;;2.60;99.90;;;;;;5011113;28;20037;-80
2022/02/27 01:10:11;;;;;;;7.72;2.25;;;;;;;;;;5027210;28;20030;-80
2022/02/27 01:13:03;;;;;;;6.57;2.10;;;;;;;;;;5006348;28;20525;-80
2022/02/27 01:16:13;;;;;;;8.02;2.10;;;2.60;99.90;;;;;;5027415;28;20030;-80
2022/02/27 01:19:49;;;;;;;10.57;2.08;;;2.40;99.90;;;;;;5026623;28;20026;-81
2022/02/27 01:26:39;;;;;;;6.45;2.00;;;2.60;99.90;;;;;;4994415;28;20029;-80
2022/02/27 01:29:57;;;;;;;48.00;18.30;;;2.60;99.90;;;;;;5004121;28;20034;-79
2022/02/27 01:35:48;;;;;;;6.88;2.03;;;1.20;99.90;;;;;;5031316;28;20036;-85
2022/02/27 01:38:34;;;;;;;6.82;1.77;;;2.70;99.90;;;;;;5011505;28;20030;-82
2022/02/27 01:41:40;;;;;;;8.20;3.22;;;2.70;99.90;;;;;;5007207;28;20053;-81
2022/02/27 01:44:26;;;;;;;5.43;2.08;;;3.00;99.90;;;;;;4991362;28;20057;-80
2022/02/27 01:47:41;;;;;;;12.75;2.25;;;2.70;99.90;;;;;;5005510;28;20038;-79
2022/02/27 01:50:28;;;;;;;7.90;2.00;;;0.50;99.90;;;;;;5023192;28;20057;-80
2022/02/27 01:53:06;;;;;;;8.52;2.35;;;;;;;;;;5027510;28;20064;-81
2022/02/27 01:59:31;;;;;;;7.78;2.10;;;2.70;99.90;;;;;;4987155;28;20054;-80
2022/02/27 02:03:05;;;;;;;6.75;1.80;;;2.70;99.90;;;;;;5013904;28;20030;-82
2022/02/27 02:06:11;;;;;;;4.80;1.77;;;2.60;99.90;;;;;;5024028;28;20537;-79
2022/02/27 02:09:32;;;;;;;7.68;2.78;;;2.70;99.90;;;;;;4974841;28;20030;-79
2022/02/27 02:15:55;;;;;;;5.25;1.80;;;2.60;99.90;;;;;;4986151;28;20033;-82
2022/02/27 02:19:07;;;;;;;6.68;1.73;;;2.60;99.90;;;;;;4968961;28;20039;-81
2022/02/27 02:22:16;;;;;;;;;;;2.80;99.90;;;;;;4970486;28;20023;-81
2022/02/27 02:25:46;;;;;;;6.93;1.95;;;2.50;99.90;;;;;;5002533;28;19910;-83
2022/02/27 02:28:59;;;;;;;8.48;2.00;;;2.60;99.90;;;;;;5004038;28;20030;-80
2022/02/27 02:32:19;;;;;;;8.65;1.92;;;2.50;99.90;;;;;;4985225;28;20065;-81
2022/02/27 02:35:32;;;;;;;6.47;1.40;;;2.50;99.90;;;;;;5016654;28;20037;-81
2022/02/27 02:38:24;;;;;;;9.98;2.50;;;2.60;99.90;;;;;;5004118;28;20111;-80
2022/02/27 02:41:50;;;;;;;7.22;1.77;;;2.70;99.90;;;;;;5021720;28;20022;-82
2022/02/27 02:45:08;;;;;;;8.63;2.30;;;2.60;99.90;;;;;;5004776;28;20033;-80
2022/02/27 02:48:27;;;;;;;9.90;2.38;;;2.70;99.90;;;;;;4994611;28;20029;-81
2022/02/27 02:50:57;;;;;;;10.35;2.83;;;;;;;;;;5005818;28;20038;-82
2022/02/27 02:56:59;;;;;;;8.70;2.67;;;2.90;99.90;;;;;;5052084;28;20527;-79
2022/02/27 02:59:25;;;;;;;6.47;2.20;;;2.70;99.90;;;;;;5034857;28;20112;-80
2022/02/27 03:01:51;;;;;;;5.97;1.88;;;2.80;99.90;;;;;;5051255;28;20044;-78
2022/02/27 03:04:16;;;;;;;9.48;2.20;;;2.70;99.90;;;;;;5035854;28;20017;-79
2022/02/27 03:06:42;;;;;;;4.72;1.77;;;2.60;99.90;;;;;;5039467;28;20032;-81
2022/02/27 03:09:08;;;;;;;6.43;2.22;;;2.50;99.90;;;;;;5017406;28;20017;-80
2022/02/27 03:11:34;;;;;;;7.90;2.03;;;2.60;99.90;;;;;;5021566;28;20466;-80
2022/02/27 03:14:01;;;;;;;6.55;2.50;;;2.60;99.90;;;;;;5018899;28;20024;-80
2022/02/27 03:16:27;;;;;;;8.68;2.88;;;2.50;99.90;;;;;;5015206;28;20497;-76
2022/02/27 03:18:53;;;;;;;9.50;2.00;;;2.40;99.90;;;;;;5021861;28;20470;-80
2022/02/27 03:21:19;;;;;;;6.20;1.90;;;2.30;99.90;;;;;;5015852;28;20116;-78
2022/02/27 03:23:44;;;;;;;6.10;2.53;;;2.20;99.90;;;;;;5013886;28;20059;-80
2022/02/27 03:26:10;;;;;;;8.15;2.15;;;2.10;99.90;;;;;;5014568;28;20025;-80
2022/02/27 03:28:36;;;;;;;5.85;1.92;;;2.10;99.90;;;;;;5019568;28;20129;-79
2022/02/27 03:31:01;;;;;;;6.18;2.38;;;2.60;99.90;;;;;;5020645;28;20033;-79
2022/02/27 03:33:27;;;;;;;11.75;2.25;;;2.00;99.90;;;;;;5020438;28;20025;-77
2022/02/27 03:35:53;;;;;;;8.10;1.70;;;2.10;99.90;;;;;;5021319;28;20033;-79
2022/02/27 03:38:19;;;;;;;5.10;1.88;;;2.10;99.90;;;;;;5015121;28;20025;-80
2022/02/27 03:40:44;;;;;;;7.65;1.88;;;2.20;99.90;;;;;;5019879;28;20372;-78
2022/02/27 03:43:10;;;;;;;6.88;2.00;;;2.40;99.90;;;;;;5038880;28;20029;-77
2022/02/27 03:45:36;;;;;;;5.18;1.85;;;2.50;99.90;;;;;;5017793;28;20025;-77
2022/02/27 03:48:02;;;;;;;5.22;1.65;;;2.50;99.90;;;;;;5020004;28;20025;-80
2022/02/27 03:50:27;;;;;;;5.55;1.67;;;2.50;99.90;;;;;;5019169;28;20041;-78
2022/02/27 03:52:53;;;;;;;4.95;1.67;;;2.50;99.90;;;;;;5021272;28;20044;-77
2022/02/27 03:55:19;;;;;;;6.00;2.10;;;2.40;99.90;;;;;;5025032;28;20052;-79
2022/02/27 03:57:45;;;;;;;8.90;1.80;;;2.60;99.90;;;;;;5015113;28;20034;-80
2022/02/27 04:00:17;;;;;;;8.60;1.98;;;2.60;99.90;;;;;;5013008;28;20112;-77
2022/02/27 04:02:45;;;;;;;5.22;1.95;;;2.70;99.90;;;;;;5018068;28;20025;-79
2022/02/27 04:05:12;;;;;;;5.70;1.95;;;2.80;99.90;;;;;;5016909;28;20037;-80
2022/02/27 04:07:38;;;;;;;7.03;1.88;;;2.80;99.90;;;;;;5020512;28;20497;-80
2022/02/27 04:10:04;;;;;;;6.75;1.95;;;2.80;99.90;;;;;;5018661;28;20022;-80
2022/02/27 04:12:29;;;;;;;4.45;1.58;;;2.80;99.90;;;;;;5007825;28;20073;-79
2022/02/27 04:14:55;;;;;;;4.35;1.65;;;2.80;99.90;;;;;;5016808;28;20037;-80
2022/02/27 04:17:21;;;;;;;5.47;1.70;;;2.70;99.90;;;;;;5019366;28;20076;-80
2022/02/27 04:19:47;;;;;;;7.13;2.10;;;2.60;99.90;;;;;;5015940;28;20550;-77
2022/02/27 04:22:12;;;;;;;6.47;2.00;;;2.60;99.90;;;;;;5034834;28;20478;-80
2022/02/27 04:24:38;;;;;;;6.07;1.77;;;2.60;99.90;;;;;;5013103;28;20116;-80
2022/02/27 04:27:04;;;;;;;5.80;1.92;;;2.70;99.90;;;;;;5018875;28;20029;-79
2022/02/27 04:29:29;;;;;;;7.45;1.75;;;2.80;99.90;;;;;;5009729;28;20083;-80
2022/02/27 04:31:55;;;;;;;7.68;2.13;;;2.70;99.90;;;;;;5017098;28;20355;-79
2022/02/27 04:34:21;;;;;;;15.18;3.78;;;2.80;99.90;;;;;;5019054;28;20036;-82
2022/02/27 04:36:46;;;;;;;5.35;1.75;;;2.70;99.90;;;;;;4997516;28;20463;-79
2022/02/27 04:39:12;;;;;;;6.80;1.67;;;2.80;99.90;;;;;;5016648;28;20387;-77
2022/02/27 04:41:40;;;;;;;6.10;2.88;;;2.80;99.90;;;;;;5035963;28;20064;-80
2022/02/27 04:44:06;;;;;;;15.13;3.80;;;2.80;99.90;;;;;;5021968;28;20025;-80
2022/02/27 04:46:32;;;;;;;10.77;2.80;;;;;;;;;;5040860;23;20069;-79
2022/02/27 04:48:58;;;;;;;12.60;2.03;;;;;;;;;;5036062;28;20033;-82
2022/02/27 04:51:23;;;;;;;9.30;2.15;;;2.80;99.90;;;;;;5030973;28;20026;-79
2022/02/27 04:53:51;;;;;;;6.53;1.98;;;2.60;99.90;;;;;;5022602;28;20386;-80
2022/02/27 04:56:16;;;;;;;6.32;2.08;;;2.40;99.90;;;;;;5030352;28;20369;-79
2022/02/27 04:58:42;;;;;;;4.18;1.92;;;2.60;99.90;;;;;;5017504;28;20041;-79
2022/02/27 05:01:08;;;;;;;7.88;2.15;;;2.50;99.90;;;;;;5019722;28;20040;-81
2022/02/27 05:03:33;;;;;;;5.85;1.98;;;4.50;99.90;;;;;;5032094;28;20056;-80
2022/02/27 05:05:59;;;;;;;6.47;2.42;;;;;;;;;;5007467;28;20172;-79
2022/02/27 05:08:25;;;;;;;5.90;1.95;;;2.60;99.90;;;;;;5030712;28;20030;-79
2022/02/27 05:10:50;;;;;;;6.43;2.00;;;2.50;99.90;;;;;;5018235;28;20463;-77
2022/02/27 05:13:16;;;;;;;9.50;2.53;;;2.50;99.90;;;;;;5015867;28;20088;-80
2022/02/27 05:15:42;;;;;;;5.20;1.90;;;2.50;99.90;;;;;;5020838;28;20034;-81
2022/02/27 05:18:07;;;;;;;6.05;2.35;;;2.50;99.90;;;;;;5010390;28;20064;-80
2022/02/27 05:20:33;;;;;;;7.57;1.95;;;2.30;99.90;;;;;;5019407;28;20472;-81
2022/02/27 05:22:59;;;;;;;5.15;2.47;;;2.50;99.90;;;;;;5006436;28;20022;-80
2022/02/27 05:25:24;;;;;;;7.07;2.10;;;2.20;99.90;;;;;;5025694;28;20034;-79
2022/02/27 05:27:52;;;;;;;6.18;1.95;;;2.40;99.90;;;;;;5011639;28;20028;-80
2022/02/27 05:30:19;;;;;;;11.85;3.20;;;3.90;99.90;;;;;;5007073;28;20030;-81
2022/02/27 05:32:49;;;;;;;5.72;2.00;;;2.50;99.90;;;;;;5012437;28;20038;-82
2022/02/27 05:35:15;;;;;;;4.15;1.70;;;5.80;99.90;;;;;;5008383;28;20029;-79
2022/02/27 05:37:41;;;;;;;6.70;2.50;;;5.40;99.90;;;;;;5009111;28;20478;-81
2022/02/27 05:40:07;;;;;;;9.80;3.33;;;3.80;99.90;;;;;;5019743;28;20037;-79
2022/02/27 05:42:34;;;;;;;6.97;2.72;;;2.50;99.90;;;;;;5007424;28;20104;-81
2022/02/27 05:45:00;;;;;;;6.38;2.50;;;2.50;99.90;;;;;;5007643;28;20030;-82
2022/02/27 05:47:26;;;;;;;9.25;2.90;;;3.90;99.90;;;;;;5016153;28;20026;-80
2022/02/27 05:49:51;;;;;;;7.63;2.58;;;2.50;99.90;;;;;;5013345;28;20098;-82
2022/02/27 05:52:18;;;;;;;6.60;2.55;;;2.40;99.90;;;;;;5004755;28;20053;-82
2022/02/27 05:54:45;;;;;;;5.10;2.17;;;2.50;99.90;;;;;;5014675;28;20088;-81
2022/02/27 05:57:10;;;;;;;8.25;2.22;;;2.50;99.90;;;;;;5020064;28;20027;-79
2022/02/27 05:59:36;;;;;;;6.93;2.10;;;2.60;99.90;;;;;;5016465;28;20034;-82
2022/02/27 06:02:02;;;;;;;6.68;2.25;;;2.70;99.90;;;;;;5023931;28;20377;-79
2022/02/27 06:04:28;;;;;;;5.68;1.90;;;2.70;99.90;;;;;;5022175;28;20034;-84
2022/02/27 06:06:53;;;;;;;8.45;2.10;;;2.50;99.90;;;;;;5008682;28;20030;-78
2022/02/27 06:09:19;;;;;;;6.88;2.08;;;2.50;99.90;;;;;;5017058;28;20009;-81
2022/02/27 06:11:45;;;;;;;5.97;2.10;;;;;;;;;;5008405;28;20034;-81
2022/02/27 06:14:10;;;;;;;4.90;2.00;;;2.50;99.90;;;;;;5025513;28;20022;-79
2022/02/27 06:16:36;;;;;;;5.00;2.05;;;2.50;99.90;;;;;;5008267;28;20038;-82
2022/02/27 06:19:02;;;;;;;11.70;2.38;;;2.40;99.90;;;;;;5005618;28;20045;-82
2022/02/27 06:21:28;;;;;;;5.72;1.83;;;3.20;99.90;;;;;;5006151;28;20030;-79
2022/02/27 06:23:54;;;;;;;7.28;2.53;;;;;;;;;;5010659;28;20033;-79
2022/02/27 06:26:19;;;;;;;9.25;2.88;;;2.50;99.90;;;;;;5031911;28;20478;-79
2022/02/27 06:28:45;;;;;;;7.18;2.30;;;2.60;99.90;;;;;;5029979;28;20030;-79
2022/02/27 06:31:11;;;;;;;13.57;2.60;;;2.50;99.90;;;;;;5021608;28;20058;-80
2022/02/27 06:33:37;;;;;;;7.20;2.78;;;;;;;;;;5024331;28;20030;-79
2022/02/27 06:36:03;;;;;;;6.07;2.50;;;2.40;99.90;;;;;;5007913;28;20193;-77
2022/02/27 06:38:29;;;;;;;7.18;2.33;;;2.40;99.90;;;;;;5015114;28;20120;-79
2022/02/27 06:40:55;;;;;;;6.20;2.58;;;2.30;99.90;;;;;;5002410;28;20123;-79
2022/02/27 06:43:20;;;;;;;8.90;2.38;;;4.10;99.90;;;;;;5014813;28;20404;-79
2022/02/27 06:45:46;;;;;;;5.38;2.38;;;2.10;99.90;;;;;;5012772;28;20593;-79
2022/02/27 06:48:12;;;;;;;5.43;2.35;;;2.20;99.90;;;;;;5004585;28;20038;-80
2022/02/27 06:50:37;;;;;;;8.90;2.75;;;2.10;99.90;;;;;;5001381;28;20026;-81
2022/02/27 06:53:03;;;;;;;9.75;2.30;;;2.10;99.90;;;;;;5017546;28;20026;-79
2022/02/27 06:55:29;;;;;;;9.07;2.65;;;2.20;99.90;;;;;;5011974;28;20030;-78
2022/02/27 06:57:54;;;;;;;5.70;2.40;;;2.10;99.90;;;;;;5020612;28;20037;-80
2022/02/27 07:00:20;;;;;;;4.93;2.10;;;2.20;99.90;;;;;;5037197;28;20040;-81
2022/02/27 07:02:47;;;;;;;8.73;2.63;;;2.20;99.90;;;;;;5017352;28;20056;-79
2022/02/27 07:05:13;;;;;;;8.43;2.20;;;2.10;99.90;;;;;;5006619;28;20023;-80
2022/02/27 07:07:39;;;;;;;9.10;2.83;;;2.10;99.90;;;;;;5014875;28;20031;-84
2022/02/27 07:10:06;;;;;;;7.65;2.95;;;2.00;99.90;;;;;;5018012;28;20037;-80
2022/02/27 07:12:34;;;;;;;5.50;2.28;;;2.00;99.90;;;;;;5009918;28;20030;-80
2022/02/27 07:15:00;;;;;;;7.57;2.72;;;2.00;99.90;;;;;;5012813;28;20040;-79
2022/02/27 07:17:26;;;;;;;11.18;2.95;;;;;;;;;;5010810;28;20124;-82
2022/02/27 07:19:52;;;;;;;7.82;2.80;;;2.20;99.90;;;;;;5022224;28;20098;-80
2022/02/27 07:22:19;;;;;;;8.20;3.90;;;2.40;99.90;;;;;;5019166;28;20061;-81
2022/02/27 07:24:45;;;;;;;8.10;2.58;;;4.20;99.90;;;;;;5015987;28;20026;-87
2022/02/27 07:27:10;;;;;;;8.82;2.33;;;1.90;99.90;;;;;;5010839;28;20022;-80
2022/02/27 07:29:36;;;;;;;9.15;2.47;;;2.40;99.90;;;;;;5003461;28;20560;-82
2022/02/27 07:32:02;;;;;;;8.38;2.90;;;2.40;99.90;;;;;;5014417;28;20038;-80
2022/02/27 07:34:28;;;;;;;12.88;3.03;;;;;;;;;;5017516;28;20047;-79
2022/02/27 07:36:55;;;;;;;9.75;2.60;;;2.60;99.90;;;;;;5028580;28;20229;-81
2022/02/27 07:39:25;;;;;;;7.95;2.85;;;2.60;99.90;;;;;;5019345;28;20048;-79
2022/02/27 07:41:52;;;;;;;8.52;2.50;;;2.80;99.90;;;;;;5013376;28;20395;-80
2022/02/27 07:44:17;;;;;;;9.13;3.42;;;2.70;99.90;;;;;;5013210;28;20100;-80
2022/02/27 07:46:43;;;;;;;6.90;3.05;;;2.80;99.90;;;;;;5026106;28;20026;-80
2022/02/27 07:49:09;;;;;;;8.73;2.90;;;2.90;99.90;;;;;;5016437;28;20023;-80
2022/02/27 07:51:35;;;;;;;10.75;3.45;;;3.70;99.90;;;;;;5018287;28;20036;-80
2022/02/27 07:54:01;;;;;;;11.40;3.50;;;3.00;99.90;;;;;;5029111;28;20029;-82
2022/02/27 07:56:27;;;;;;;6.75;2.70;;;4.10;99.90;;;;;;5010566;28;20033;-86
2022/02/27 07:58:52;;;;;;;8.77;2.95;;;3.40;99.90;;;;;;5011883;28;20018;-82
2022/02/27 08:01:18;;;;;;;8.68;2.70;;;3.40;99.90;;;;;;5003049;28;20031;-81
2022/02/27 08:03:44;;;;;;;6.47;3.33;;;3.50;99.90;;;;;;5007148;28;20030;-82
2022/02/27 08:06:10;;;;;;;8.25;2.75;;;3.50;99.90;;;;;;5028626;28;20029;-80
2022/02/27 08:08:36;;;;;;;5.07;2.65;;;3.70;99.90;;;;;;5016248;28;20485;-82
2022/02/27 08:11:02;;;;;;;11.38;3.42;;;3.70;99.90;;;;;;5010329;28;20067;-81
2022/02/27 08:13:28;;;;;;;7.50;3.17;;;3.70;99.90;;;;;;5024441;28;20026;-82
2022/02/27 08:15:57;;;;;;;7.95;3.53;;;3.80;99.90;;;;;;5015660;28;20470;-82
2022/02/27 08:18:24;;;;;;;7.40;3.13;;;3.90;99.90;;;;;;5021871;28;20034;-81
2022/02/27 08:20:49;;;;;;;10.52;3.13;;;4.10;99.90;;;;;;5017226;28;20030;-82
2022/02/27 08:23:18;;;;;;;8.25;2.63;;;4.00;99.90;;;;;;5013118;28;20396;-80
2022/02/27 08:25:44;;;;;;;5.65;2.88;;;4.00;99.90;;;;;;5026102;28;20553;-82
2022/02/27 08:28:10;;;;;;;9.15;2.67;;;4.30;99.90;;;;;;5025314;28;20018;-81
2022/02/27 08:30:36;;;;;;;8.55;3.58;;;4.30;99.90;;;;;;5010576;28;20306;-81
2022/02/27 08:33:02;;;;;;;8.68;3.15;;;;;;;;;;5029647;28;20024;-80
2022/02/27 08:35:28;;;;;;;7.35;2.95;;;4.40;99.90;;;;;;5009785;28;20022;-81
2022/02/27 08:37:54;;;;;;;5.22;3.08;;;4.50;99.90;;;;;;5029354;28;20029;-82
2022/02/27 08:40:20;;;;;;;9.02;3.03;;;4.60;99.90;;;;;;5033541;28;20499;-83
2022/02/27 08:42:45;;;;;;;7.15;2.55;;;4.60;99.90;;;;;;5029710;28;20026;-82
2022/02/27 08:45:12;;;;;;;7.10;3.28;;;4.70;99.90;;;;;;5009788;28;20523;-83
2022/02/27 08:47:37;;;;;;;9.23;3.20;;;4.80;99.90;;;;;;5016482;28;20022;-83
2022/02/27 08:50:04;;;;;;;6.97;2.92;;;4.90;99.90;;;;;;5007861;28;20031;-81
2022/02/27 08:52:30;;;;;;;11.32;3.05;;;5.10;99.90;;;;;;5006587;28;20026;-80
2022/02/27 08:54:55;;;;;;;7.10;3.10;;;5.30;99.90;;;;;;5010284;28;20081;-81
2022/02/27 08:57:21;;;;;;;8.88;3.00;;;5.40;99.90;;;;;;5013313;28;20046;-82
2022/02/27 08:59:46;;;;;;;12.38;2.63;;;5.30;99.90;;;;;;5007244;28;20056;-83
2022/02/27 09:02:12;;;;;;;9.57;2.90;;;5.30;99.90;;;;;;5007960;28;20025;-80
2022/02/27 09:04:38;;;;;;;9.13;2.60;;;5.50;99.90;;;;;;5016318;28;20019;-80
2022/02/27 09:07:03;;;;;;;8.30;3.17;;;5.50;99.90;;;;;;5030175;28;20045;-83
2022/02/27 09:09:29;;;;;;;8.27;3.45;;;6.70;99.90;;;;;;5026531;28;20018;-80
2022/02/27 09:11:57;;;;;;;8.18;3.45;;;5.60;99.90;;;;;;5015241;28;20025;-80
2022/02/27 09:14:23;;;;;;;8.85;2.50;;;5.60;99.90;;;;;;5010103;28;20026;-82
2022/02/27 09:16:48;;;;;;;7.43;2.50;;;5.70;99.90;;;;;;5012415;28;20549;-83
2022/02/27 09:19:14;;;;;;;7.72;3.05;;;5.70;99.90;;;;;;5003274;28;20037;-80
2022/02/27 09:21:40;;;;;;;6.20;2.70;;;5.90;99.90;;;;;;5000755;28;20031;-79
2022/02/27 09:24:05;;;;;;;5.47;2.50;;;6.00;99.90;;;;;;5007471;28;20025;-82
2022/02/27 09:26:31;;;;;;;5.25;2.65;;;6.10;99.90;;;;;;5015352;28;20384;-81
2022/02/27 09:28:56;;;;;;;7.80;2.60;;;6.20;99.90;;;;;;5011116;28;20026;-81
2022/02/27 09:31:22;;;;;;;5.38;2.20;;;8.80;99.90;;;;;;5006039;28;20029;-81
2022/02/27 09:33:48;;;;;;;5.32;2.28;;;6.30;99.90;;;;;;5014163;28;20036;-81
2022/02/27 09:36:13;;;;;;;10.20;3.35;;;6.30;99.90;;;;;;5021916;28;20026;-82
2022/02/27 09:38:40;;;;;;;5.65;2.08;;;6.40;99.90;;;;;;5024068;28;20034;-80
2022/02/27 09:41:08;;;;;;;6.57;2.30;;;6.50;99.90;;;;;;5028060;28;20054;-80
2022/02/27 09:43:37;;;;;;;7.18;2.30;;;6.60;99.80;;;;;;5031810;28;20060;-82
2022/02/27 09:46:03;;;;;;;7.15;2.78;;;10.30;99.90;;;;;;5008689;28;20404;-80
2022/02/27 09:48:28;;;;;;;7.95;2.70;;;6.60;98.10;;;;;;5006987;28;20026;-79
2022/02/27 09:50:54;;;;;;;9.40;2.50;;;6.60;98.40;;;;;;5012968;28;20041;-81
2022/02/27 09:53:20;;;;;;;4.72;2.17;;;7.20;97.40;;;;;;5023114;28;20022;-79
2022/02/27 09:55:47;;;;;;;4.38;1.92;;;;;;;;;;5009716;28;20038;-79
2022/02/27 09:58:13;;;;;;;5.00;2.20;;;6.80;96.10;;;;;;5020490;28;20026;-80
2022/02/27 10:00:39;;;;;;;4.72;2.22;;;6.90;96.30;;;;;;5024635;28;20500;-79
2022/02/27 10:03:07;;;;;;;5.25;2.20;;;6.90;96.10;;;;;;5016119;28;20549;-79
2022/02/27 10:05:38;;;;;;;5.18;2.22;;;7.80;94.70;;;;;;5017626;28;20018;-81
2022/02/27 10:08:06;;;;;;;6.25;2.20;;;7.00;94.20;;;;;;5009195;28;20033;-80
2022/02/27 10:10:32;;;;;;;4.63;2.17;;;7.10;93.70;;;;;;5011005;28;20030;-79
2022/02/27 10:12:58;;;;;;;6.13;2.25;;;7.20;92.90;;;;;;5019177;28;20053;-80
2022/02/27 10:15:24;;;;;;;4.32;2.05;;;7.60;92.60;;;;;;5003915;28;20049;-79
2022/02/27 10:17:51;;;;;;;5.82;2.22;;;7.20;92.50;;;;;;5006909;28;20483;-79
2022/02/27 10:20:19;;;;;;;5.38;2.50;;;7.40;91.90;;;;;;5003130;28;20043;-82
2022/02/27 10:22:47;;;;;;;4.82;1.98;;;7.80;90.30;;;;;;5012364;28;20077;-81
2022/02/27 10:25:23;;;;;;;3.38;1.70;;;7.60;90.10;;;;;;5030713;28;20041;-80
2022/02/27 10:27:52;;;;;;;4.68;1.90;;;7.80;87.10;;;;;;5012182;28;20033;-80
2022/02/27 10:30:25;;;;;;;4.32;2.00;;;7.90;87.30;;;;;;5013192;28;20084;-81
2022/02/27 10:32:52;;;;;;;2.97;1.50;;;8.00;84.30;;;;;;5012198;28;20093;-80
2022/02/27 10:35:36;;;;;;;4.75;1.90;;;8.10;82.20;;;;;;5009241;28;20036;-80
2022/02/27 10:38:03;;;;;;;5.25;1.90;;;8.20;75.90;;;;;;5013058;28;20023;-82
2022/02/27 10:40:33;;;;;;;2.33;1.23;;;8.20;74.60;;;;;;5024568;28;20030;-82
2022/02/27 10:43:00;;;;;;;6.53;1.73;;;8.00;73.70;;;;;;5012774;28;20022;-82
2022/02/27 10:45:27;;;;;;;3.53;1.55;;;8.10;73.00;;;;;;5016045;28;20038;-82
2022/02/27 10:48:07;;;;;;;3.10;1.38;;;8.00;73.40;;;;;;5012266;28;20022;-79
2022/02/27 10:50:34;;;;;;;2.63;1.35;;;8.20;72.10;;;;;;5013533;28;20029;-80
2022/02/27 10:53:01;;;;;;;5.68;1.50;;;8.30;70.50;;;;;;5005220;28;20033;-80
2022/02/27 10:55:27;;;;;;;2.28;1.27;;;8.40;70.20;;;;;;5003412;28;20113;-80
2022/02/27 10:57:54;;;;;;;4.18;1.60;;;8.50;68.00;;;;;;5013046;28;20022;-81
2022/02/27 11:00:25;;;;;;;4.30;1.65;;;8.50;68.60;;;;;;5012550;28;20030;-81
2022/02/27 11:02:54;;;;;;;3.15;1.30;;;9.00;66.50;;;;;;5001265;28;20022;-79
2022/02/27 11:05:25;;;;;;;3.05;1.50;;;8.60;65.40;;;;;;5008700;28;20014;-79
2022/02/27 11:07:55;;;;;;;3.67;1.30;;;8.60;64.60;;;;;;5002255;28;20396;-85
2022/02/27 11:10:25;;;;;;;3.75;1.60;;;8.40;65.40;;;;;;5013789;28;20049;-80
2022/02/27 11:12:52;;;;;;;3.90;1.43;;;8.40;65.30;;;;;;5020563;28;20046;-79
2022/02/27 11:15:20;;;;;;;2.45;1.55;;;8.50;65.10;;;;;;5006073;28;20273;-82
2022/02/27 11:17:46;;;;;;;3.55;1.50;;;8.70;63.50;;;;;;5006061;28;20030;-81
2022/02/27 11:20:13;;;;;;;4.78;1.75;;;8.40;62.50;;;;;;5014127;28;20037;-80
2022/02/27 11:22:40;;;;;;;3.03;1.50;;;10.90;64.30;;;;;;5008008;28;20014;-79
2022/02/27 11:25:08;;;;;;;2.33;1.25;;;9.90;64.00;;;;;;5024305;28;20021;-79
2022/02/27 11:27:36;;;;;;;3.75;1.40;;;8.70;62.60;;;;;;5007926;28;20483;-80
2022/02/27 11:30:04;;;;;;;3.17;1.45;;;8.70;63.40;;;;;;5010576;28;20042;-80
2022/02/27 11:32:29;;;;;;;3.65;1.70;;;8.70;63.00;;;;;;5013595;28;20116;-77
2022/02/27 11:34:55;;;;;;;3.33;1.60;;;10.20;64.20;;;;;;5004678;28;20562;-80
2022/02/27 11:37:49;;;;;;;3.63;1.83;;;10.60;64.80;;;;;;5007246;28;20526;-80
2022/02/27 11:40:28;;;;;;;4.53;1.88;;;8.90;62.80;;;;;;5008596;28;20089;-79
2022/02/27 11:42:56;;;;;;;3.47;1.70;;;8.90;63.50;;;;;;5009882;28;20379;-80
2022/02/27 11:45:42;;;;;;;2.92;1.63;;;9.00;64.40;;;;;;5017424;28;20033;-80
2022/02/27 11:48:08;;;;;;;5.43;1.80;;;11.40;65.60;;;;;;4991111;28;20037;-80
2022/02/27 11:50:39;;;;;;;3.83;1.73;;;6.90;65.20;;;;;;5007315;28;20065;-84
2022/02/27 11:53:21;;;;;;;;;;;9.40;63.60;;;;;;5009960;28;20112;-78
2022/02/27 11:55:47;;;;;;;3.80;1.88;;;9.30;62.80;;;;;;5009603;28;19913;-80
2022/02/27 11:58:32;;;;;;;2.97;1.75;;;11.20;65.00;;;;;;5028756;28;20033;-79
2022/02/27 12:01:02;;;;;;;4.85;2.13;;;11.20;64.40;;;;;;5012715;28;20045;-80
2022/02/27 12:03:30;;;;;;;3.47;1.70;;;9.00;62.90;;;;;;5032703;28;20033;-77
2022/02/27 12:05:58;;;;;;;3.20;1.73;;;10.10;64.50;;;;;;5015710;28;20034;-84
2022/02/27 12:08:45;;;;;;;4.25;1.90;;;9.90;64.30;;;;;;5029323;28;20122;-81
2022/02/27 12:11:27;;;;;;;4.95;2.30;;;9.20;64.00;;;;;;5013876;28;20395;-80
2022/02/27 12:14:01;;;;;;;5.25;2.35;;;9.30;65.90;;;;;;5017716;28;20114;-82
2022/02/27 12:16:45;;;;;;;4.43;2.38;;;9.20;64.10;;;;;;5010739;28;20034;-84
2022/02/27 12:19:22;;;;;;;4.75;2.20;;;9.20;64.40;;;;;;5037303;28;20080;-83
2022/02/27 12:21:49;;;;;;;5.00;2.30;;;10.00;65.40;;;;;;5014965;28;20026;-84
2022/02/27 12:24:27;;;;;;;4.35;2.10;;;9.00;65.80;;;;;;5030604;28;20041;-81
2022/02/27 12:26:57;;;;;;;4.50;2.22;;;8.50;65.60;;;;;;5021335;28;20105;-82
2022/02/27 12:29:28;;;;;;;4.07;1.92;;;11.00;66.90;;;;;;5025668;28;20037;-82
2022/02/27 12:31:55;;;;;;;4.22;2.05;;;9.40;65.20;;;;;;5039475;28;20033;-81
2022/02/27 12:34:22;;;;;;;5.43;2.17;;;9.80;66.00;;;;;;5034424;28;20032;-81
2022/02/27 12:37:00;;;;;;;3.55;1.95;;;12.00;66.90;;;;;;5034273;28;20081;-82
2022/02/27 12:39:31;;;;;;;4.40;2.10;;;9.50;66.40;;;;;;5017880;28;20029;-81
2022/02/27 12:41:57;;;;;;;4.82;2.08;;;;;;;;;;5014655;28;20026;-83
2022/02/27 12:44:31;;;;;;;4.53;2.33;;;9.80;62.50;;;;;;5027055;28;20041;-84
2022/02/27 12:46:58;;;;;;;5.30;2.35;;;9.80;62.50;;;;;;5028406;28;20097;-82
2022/02/27 12:52:14;;;;;;;5.25;2.13;;;9.70;63.00;;;;;;5026353;28;20053;-82
2022/02/27 12:54:39;;;;;;;4.20;2.20;;;12.20;64.10;;;;;;5017262;28;20042;-83
2022/02/27 12:57:08;;;;;;;5.85;2.20;;;9.60;63.80;;;;;;5039321;28;20041;-81
2022/02/27 12:59:37;;;;;;;5.70;2.00;;;12.80;66.40;;;;;;5042331;28;20049;-82
2022/02/27 13:02:04;;;;;;;4.22;2.00;;;10.90;64.30;;;;;;5039670;28;20053;-85
2022/02/27 13:04:32;;;;;;;3.22;1.90;;;10.20;63.40;;;;;;5014569;28;20019;-83
2022/02/27 13:07:18;;;;;;;4.70;2.47;;;10.20;64.50;;;;;;5025655;28;20026;-82
2022/02/27 13:09:45;;;;;;;4.35;1.95;;;13.60;66.00;;;;;;5020746;28;20022;-80
2022/02/27 13:12:16;;;;;;;4.50;2.45;;;13.00;63.50;;;;;;5027365;28;20017;-84
2022/02/27 13:14:52;;;;;;;;;;;13.30;60.90;;;;;;5023242;28;20034;-78
2022/02/27 13:17:24;;;;;;;7.30;1.90;;;10.80;58.50;;;;;;5020151;28;19910;-83
2022/02/27 13:19:52;;;;;;;4.93;1.92;;;12.60;60.60;;;;;;5027894;28;20026;-86
2022/02/27 13:22:29;;;;;;;4.25;2.20;;;11.00;60.60;;;;;;5040802;28;20021;-84
2022/02/27 13:24:57;;;;;;;6.55;2.20;;;10.30;60.40;;;;;;5032847;28;20073;-88
2022/02/27 13:27:28;;;;;;;5.25;2.47;;;10.10;62.50;;;;;;5031777;28;20041;-84
2022/02/27 13:29:55;;;;;;;11.27;2.22;;;10.20;63.30;;;;;;5022033;28;20025;-84
2022/02/27 13:32:28;;;;;;;5.25;2.13;;;10.20;60.70;;;;;;5034188;28;20027;-81
2022/02/27 13:34:58;;;;;;;4.68;2.10;;;10.30;59.70;;;;;;5037290;28;20049;-79
2022/02/27 13:37:30;;;;;;;3.50;2.10;;;10.30;58.20;;;;;;5026283;28;20022;-83
2022/02/27 13:40:17;;;;;;;5.03;1.88;;;12.40;60.20;;;;;;5020275;28;20185;-82
2022/02/27 13:42:48;;;;;;;5.35;2.22;;;10.30;59.40;;;;;;5027303;28;20041;-87
2022/02/27 13:45:28;;;;;;;3.70;2.10;;;12.20;61.60;;;;;;5027669;28;20057;-81
2022/02/27 13:47:54;;;;;;;3.55;2.10;;;;;;;;;;5023840;28;20026;-81
2022/02/27 13:50:22;;;;;;;6.57;1.92;;;10.20;57.80;;;;;;5018270;28;20030;-81
2022/02/27 13:53:02;;;;;;;6.05;2.47;;;10.60;59.90;;;;;;5026465;28;20068;-81
2022/02/27 13:55:31;;;;;;;4.13;2.20;;;8.40;57.60;;;;;;5020403;28;20045;-78
2022/02/27 13:58:06;;;;;;;4.45;2.10;;;10.20;59.90;;;;;;5012187;28;20081;-82
2022/02/27 14:00:32;;;;;;;4.82;2.17;;;11.60;61.20;;;;;;5021079;28;20010;-86
2022/02/27 14:03:11;;;;;;;8.48;2.85;;;10.30;60.20;;;;;;5033612;28;20026;-84
2022/02/27 14:05:54;;;;;;;5.00;1.90;;;10.30;59.70;;;;;;5014319;28;20026;-83
2022/02/27 14:08:19;;;;;;;6.53;2.35;;;10.30;61.10;;;;;;5030861;28;20026;-80